Time;durP1;ratioP1;P1;durP2;ratioP2;P2;SDS_P1;SDS_P2;PMS_P1;PMS_P2;Temp;Humidity;BMP_temperature;BMP_pressure;BME280_temperature;BME280_humidity;BME280_pressure;Samples;Min_cycle;Max_cycle;Signal;HPM_P1;HPM_P2
2023/07/18 00:01:28;;;;;;;4.15;2.70;;;;;;;21.53;53.82;100445.06;10259938;28;96647;-89
2023/07/18 00:06:38;;;;;;;5.28;3.00;;;;;;;21.44;53.86;100456.50;10259664;28;96678;-89
2023/07/18 00:11:44;;;;;;;4.75;3.28;;;;;;;21.24;54.36;100444.72;10259758;28;97664;-89
2023/07/18 00:16:48;;;;;;;5.18;2.85;;;;;;;20.95;54.87;100453.34;10260586;28;97905;-89
2023/07/18 00:21:57;;;;;;;5.43;3.10;;;;;;;21.04;54.99;100455.28;10259884;28;96872;-89
2023/07/18 00:27:03;;;;;;;6.72;3.42;;;;;;;21.49;53.87;100454.31;10259051;28;97301;-89
2023/07/18 00:32:09;;;;;;;5.57;3.20;;;;;;;21.10;54.88;100455.66;10257985;28;96548;-89
2023/07/18 00:37:17;;;;;;;4.65;2.67;;;;;;;21.15;54.95;100453.50;10259054;28;97838;-89
2023/07/18 00:42:21;;;;;;;5.90;3.25;;;;;;;20.76;56.14;100456.63;10257129;28;96958;-89
2023/07/18 00:47:25;;;;;;;5.72;3.35;;;;;;;20.62;56.54;100458.69;10257399;28;96707;-89
2023/07/18 00:52:32;;;;;;;;;;;;;;;20.74;56.84;100455.06;10257600;28;97264;-90
2023/07/18 00:57:37;;;;;;;6.50;2.83;;;;;;;20.61;56.62;100446.25;10256954;28;96829;-89
2023/07/18 01:02:44;;;;;;;5.25;3.17;;;;;;;20.68;56.47;100453.69;10257286;28;96962;-89
2023/07/18 01:08:08;;;;;;;7.07;3.78;;;;;;;20.61;56.31;100452.47;10254172;28;96773;-89
2023/07/18 01:13:13;;;;;;;4.38;3.00;;;;;;;20.57;57.07;100458.19;10285247;28;96683;-89
2023/07/18 01:18:18;;;;;;;5.45;3.08;;;;;;;20.55;57.08;100457.44;10298380;28;97363;-89
2023/07/18 01:23:25;;;;;;;5.82;3.50;;;;;;;20.59;56.95;100451.72;10296840;28;96942;-89
2023/07/18 01:28:29;;;;;;;5.07;3.20;;;;;;;20.44;57.29;100455.59;10295827;28;97147;-89
2023/07/18 01:33:33;;;;;;;5.88;2.88;;;;;;;20.33;57.75;100451.06;10295188;28;96723;-90
2023/07/18 01:38:39;;;;;;;4.85;3.00;;;;;;;20.69;56.87;100458.06;10296268;28;97448;-89
2023/07/18 01:43:44;;;;;;;4.72;2.97;;;;;;;20.31;57.65;100457.50;10295861;28;96740;-89
2023/07/18 01:48:48;;;;;;;4.75;3.22;;;;;;;20.45;57.25;100459.09;10215055;28;96821;-89
2023/07/18 01:53:54;;;;;;;5.28;2.67;;;;;;;20.44;57.47;100458.28;10228777;28;96955;-89
2023/07/18 01:58:58;;;;;;;5.47;3.22;;;;;;;20.18;57.78;100449.56;10255195;28;96876;-89
2023/07/18 02:04:03;;;;;;;4.82;3.17;;;;;;;20.30;57.45;100456.66;10281202;28;97384;-89
2023/07/18 02:09:09;;;;;;;5.13;3.05;;;;;;;20.04;58.19;100455.09;10295581;28;96671;-89
2023/07/18 02:14:19;;;;;;;4.30;2.90;;;;;;;19.76;59.15;100451.91;10294974;28;97134;-89
2023/07/18 02:19:24;;;;;;;5.13;3.17;;;;;;;19.67;59.40;100453.44;10294203;28;96823;-89
2023/07/18 02:24:48;;;;;;;5.85;3.20;;;;;;;19.60;59.37;100449.50;10284212;22;97252;-90
2023/07/18 02:29:51;;;;;;;4.63;3.00;;;;;;;19.38;60.36;100454.69;10256436;28;96864;-89
2023/07/18 02:34:55;;;;;;;7.38;3.10;;;;;;;19.66;59.52;100456.22;10260765;28;96759;-89
2023/07/18 02:40:00;;;;;;;6.55;3.55;;;;;;;19.69;59.56;100464.00;10296813;28;96779;-89
2023/07/18 02:45:21;;;;;;;5.40;3.20;;;;;;;19.58;59.65;100464.78;10296707;28;96549;-89
2023/07/18 02:50:24;;;;;;;7.05;3.60;;;;;;;19.49;60.10;100476.16;10296330;28;96590;-88
2023/07/18 02:55:49;;;;;;;6.68;3.42;;;;;;;19.43;60.44;100470.38;10244075;28;97041;-89
2023/07/18 03:00:52;;;;;;;6.88;3.40;;;;;;;19.88;59.27;100467.88;10215446;28;96674;-89
2023/07/18 03:05:56;;;;;;;6.78;3.40;;;;;;;19.77;59.65;100466.97;10215040;28;97717;-89
2023/07/18 03:11:01;;;;;;;5.30;2.87;;;;;;;19.42;60.34;100471.34;10252400;28;96935;-89
2023/07/18 03:16:22;;;;;;;4.95;3.15;;;;;;;18.98;61.91;100466.50;10292295;28;97721;-89
2023/07/18 03:21:44;;;;;;;5.68;3.38;;;;;;;19.21;61.16;100476.41;10296210;28;96645;-89
2023/07/18 03:26:49;;;;;;;5.53;2.92;;;;;;;19.12;61.61;100472.56;10278411;28;96839;-89
2023/07/18 03:31:52;;;;;;;5.15;3.28;;;;;;;18.86;62.18;100472.69;10301617;28;96946;-89
2023/07/18 03:36:55;;;;;;;6.63;3.30;;;;;;;18.56;63.19;100473.00;10300298;28;96735;-89
2023/07/18 03:42:02;;;;;;;6.47;3.45;;;;;;;18.70;62.88;100472.03;10300976;28;96723;-88
2023/07/18 03:47:07;;;;;;;5.65;3.28;;;;;;;18.29;63.94;100466.00;10299770;28;97112;-89
2023/07/18 03:52:23;;;;;;;6.10;3.20;;;;;;;18.41;63.80;100470.50;10301674;28;96620;-89
2023/07/18 03:57:30;;;;;;;5.53;3.38;;;;;;;18.24;64.50;100470.78;10270647;28;97043;-88
2023/07/18 04:02:34;;;;;;;5.90;3.20;;;;;;;18.45;63.88;100475.53;10284549;28;96785;-88
2023/07/18 04:07:55;;;;;;;6.30;3.35;;;;;;;18.13;64.84;100477.72;10298672;28;97719;-89
2023/07/18 04:13:02;;;;;;;5.60;3.45;;;;;;;18.66;63.37;100483.91;10300497;28;96814;-89
2023/07/18 04:18:06;;;;;;;6.57;3.50;;;;;;;18.65;63.29;100484.84;10300495;28;97054;-88
2023/07/18 04:23:10;;;;;;;5.43;3.22;;;;;;;18.87;62.99;100482.41;10297689;28;97360;-89
2023/07/18 04:28:16;;;;;;;5.47;3.25;;;;;;;18.74;63.64;100489.53;10259221;28;97527;-89
2023/07/18 04:33:20;;;;;;;7.45;3.63;;;;;;;18.57;63.97;100481.88;10258503;28;96662;-89
2023/07/18 04:38:43;;;;;;;8.48;3.90;;;;;;;18.75;63.99;100483.28;10292276;28;97798;-88
2023/07/18 04:43:49;;;;;;;6.57;3.55;;;;;;;18.64;64.33;100489.34;10299736;28;96672;-89
2023/07/18 04:48:53;;;;;;;6.47;3.78;;;;;;;18.63;64.65;100492.09;10298711;28;96649;-88
2023/07/18 04:53:58;;;;;;;6.35;4.00;;;;;;;18.65;64.94;100487.50;10295159;28;97464;-89
2023/07/18 04:59:04;;;;;;;6.50;4.00;;;;;;;18.91;64.50;100489.22;10257566;28;97651;-89
2023/07/18 05:04:09;;;;;;;8.15;3.65;;;;;;;18.76;65.00;100498.28;10257623;28;96693;-89
2023/07/18 05:09:12;;;;;;;8.02;4.40;;;;;;;19.10;64.77;100500.31;10269745;28;96631;-89
2023/07/18 05:14:20;;;;;;;7.95;4.43;;;;;;;19.04;64.99;100509.59;10297312;28;97097;-89
2023/07/18 05:19:24;;;;;;;7.82;4.30;;;;;;;19.05;65.12;100513.13;10297238;28;96934;-88
2023/07/18 05:24:29;;;;;;;8.02;4.75;;;;;;;19.12;65.21;100515.25;10296458;28;96898;-89
2023/07/18 05:29:35;;;;;;;7.80;4.25;;;;;;;19.29;64.94;100525.56;10296162;28;96758;-89
2023/07/18 05:34:39;;;;;;;7.63;4.50;;;;;;;19.49;64.70;100526.88;10297342;28;96703;-89
2023/07/18 05:39:43;;;;;;;7.80;4.65;;;;;;;19.42;64.94;100530.94;10296886;28;96688;-89
2023/07/18 05:44:50;;;;;;;7.68;4.60;;;;;;;19.59;64.72;100545.72;10295563;28;96783;-88
2023/07/18 05:49:56;;;;;;;8.25;4.88;;;;;;;19.46;65.08;100540.41;10295545;28;96677;-89
2023/07/18 05:55:02;;;;;;;7.82;4.53;;;;;;;19.61;64.93;100541.13;10283482;28;96762;-88
2023/07/18 06:00:11;;;;;;;10.15;4.72;;;;;;;19.50;65.35;100551.72;10269606;28;96930;-88
2023/07/18 06:05:15;;;;;;;7.53;4.20;;;;;;;19.74;64.68;100561.50;10296674;28;96938;-88
2023/07/18 06:10:20;;;;;;;7.75;4.50;;;;;;;19.54;65.37;100567.44;10295701;28;96710;-89
2023/07/18 06:15:27;;;;;;;9.63;4.45;;;;;;;19.94;64.44;100578.75;10295925;28;96670;-89
2023/07/18 06:20:32;;;;;;;9.68;4.85;;;;;;;19.76;64.89;100590.75;10295539;28;96779;-88
2023/07/18 06:25:37;;;;;;;7.78;4.35;;;;;;;19.63;65.60;100585.44;10288192;28;97688;-89
2023/07/18 06:30:43;;;;;;;7.30;4.25;;;;;;;19.70;65.27;100600.06;10255370;28;96762;-89
2023/07/18 06:35:53;;;;;;;7.78;4.25;;;;;;;19.88;64.84;100604.09;10279637;28;96594;-88
2023/07/18 06:40:59;;;;;;;6.20;4.07;;;;;;;19.91;64.48;100603.84;10294183;28;96755;-89
2023/07/18 06:46:05;;;;;;;7.80;4.25;;;;;;;19.96;64.65;100611.56;10296553;28;97795;-89
2023/07/18 06:51:10;;;;;;;6.45;3.72;;;;;;;20.20;64.05;100607.94;10295086;28;96823;-90
2023/07/18 06:56:14;;;;;;;6.97;3.72;;;;;;;20.19;64.39;100616.91;10282117;28;96815;-89
2023/07/18 07:01:21;;;;;;;7.22;3.85;;;;;;;19.87;65.39;100623.78;10262137;28;96645;-88
2023/07/18 07:06:26;;;;;;;6.50;4.07;;;;;;;20.12;64.92;100634.38;10262567;28;97278;-88
2023/07/18 07:11:30;;;;;;;5.43;4.10;;;;;;;20.09;65.25;100641.75;10301345;28;96865;-89
2023/07/18 07:16:37;;;;;;;6.15;3.97;;;;;;;20.10;65.11;100644.31;10303546;28;96569;-89
2023/07/18 07:21:42;;;;;;;7.95;4.47;;;;;;;20.30;64.78;100643.75;10301584;28;96666;-89
2023/07/18 07:26:47;;;;;;;5.65;4.25;;;;;;;20.58;64.18;100652.41;10283242;28;97347;-89
2023/07/18 07:31:55;;;;;;;4.40;2.85;;;;;;;20.91;63.69;100657.91;10262037;28;97132;-89
2023/07/18 07:37:00;;;;;;;6.28;3.13;;;;;;;21.14;63.26;100656.97;10261276;28;97294;-89
2023/07/18 07:42:04;;;;;;;4.10;2.58;;;;;;;21.23;63.35;100656.31;10274838;28;96690;-89
2023/07/18 07:47:12;;;;;;;5.15;2.80;;;;;;;21.49;62.57;100658.69;10302198;28;96770;-89
2023/07/18 07:52:16;;;;;;;6.03;3.03;;;;;;;21.71;62.03;100667.72;10301612;28;96821;-90
2023/07/18 07:57:21;;;;;;;5.45;2.85;;;;;;;21.59;62.90;100664.16;10289041;28;96937;-88
2023/07/18 08:02:27;;;;;;;;;;;;;;;21.76;62.49;100665.53;10299270;28;96655;-89
2023/07/18 08:07:32;;;;;;;3.88;2.50;;;;;;;21.69;62.92;100681.25;10301131;28;96720;-89
2023/07/18 08:12:37;;;;;;;5.35;3.20;;;;;;;21.93;62.27;100676.63;10300494;28;97630;-88
2023/07/18 08:17:44;;;;;;;4.10;2.90;;;;;;;21.89;62.14;100669.78;10300906;28;96854;-88
2023/07/18 08:22:50;;;;;;;4.70;2.97;;;;;;;21.93;61.87;100681.97;10298970;28;96933;-89
2023/07/18 08:27:54;;;;;;;4.85;2.67;;;;;;;22.21;61.70;100670.75;10264691;28;96725;-88
2023/07/18 08:33:01;;;;;;;5.90;2.95;;;;;;;22.63;61.16;100681.66;10269823;28;97319;-88
2023/07/18 08:38:08;;;;;;;4.07;2.55;;;;;;;22.74;60.68;100689.66;10298415;28;96645;-89
2023/07/18 08:43:14;;;;;;;4.07;3.10;;;;;;;22.52;61.42;100699.47;10298858;28;97588;-90
2023/07/18 08:48:38;;;;;;;5.85;3.28;;;;;;;22.73;60.91;100706.75;10292154;28;96734;-87
2023/07/18 08:53:43;;;;;;;5.80;3.20;;;;;;;22.90;60.79;100712.47;10297337;28;97062;-90
2023/07/18 08:58:47;;;;;;;;;;;;;;;22.74;61.50;100711.97;10258826;28;96880;-90
2023/07/18 09:03:53;;;;;;;4.47;2.80;;;;;;;22.76;61.32;100722.59;10257900;28;96881;-87
2023/07/18 09:08:56;;;;;;;3.97;2.70;;;;;;;22.87;61.02;100722.59;10283706;28;97603;-89
2023/07/18 09:14:23;;;;;;;3.88;2.50;;;;;;;23.22;60.39;100715.09;10290247;28;96531;-88
2023/07/18 09:19:39;;;;;;;4.30;2.42;;;;;;;23.38;60.26;100718.22;10297093;28;96609;-90
2023/07/18 09:24:59;;;;;;;4.50;3.05;;;;;;;23.61;59.37;100711.75;10293877;28;97597;-90
2023/07/18 09:30:03;;;;;;;4.83;2.97;;;;;;;23.72;58.94;100708.97;10297073;28;96682;-89
2023/07/18 09:35:11;;;;;;;6.20;3.17;;;;;;;23.80;58.48;100709.19;10297121;28;96578;-90
2023/07/18 09:40:31;;;;;;;4.70;2.93;;;;;;;24.08;58.02;100704.94;10293136;28;97314;-90
2023/07/18 09:45:37;;;;;;;4.67;3.07;;;;;;;24.25;57.51;100699.75;10295953;28;96802;-89
2023/07/18 09:51:00;;;;;;;7.60;3.33;;;;;;;24.37;56.93;100698.69;10297012;28;96581;-86
2023/07/18 09:56:21;;;;;;;5.95;3.00;;;;;;;24.56;56.66;100695.19;10279760;28;96939;-90
2023/07/18 10:01:26;;;;;;;4.78;2.92;;;;;;;24.66;56.25;100694.22;10293876;28;98003;-89
2023/07/18 10:06:33;;;;;;;5.25;3.65;;;;;;;24.79;55.63;100696.66;10294969;28;96896;-89
2023/07/18 10:12:07;;;;;;;6.32;2.50;;;;;;;25.01;55.31;100691.03;10295419;28;96849;-89
2023/07/18 10:17:33;;;;;;;6.78;3.00;;;;;;;25.23;55.30;100698.78;10289110;28;96680;-90
2023/07/18 10:22:38;;;;;;;5.65;3.40;;;;;;;25.24;55.02;100696.97;10290989;28;97004;-88
2023/07/18 10:27:43;;;;;;;4.22;2.83;;;;;;;25.41;54.78;100696.22;10254085;28;96749;-87
2023/07/18 10:32:54;;;;;;;4.60;2.95;;;;;;;25.48;54.26;100694.66;10271720;28;96723;-89
2023/07/18 10:38:06;;;;;;;4.45;3.00;;;;;;;25.76;53.46;100699.16;10295571;28;97578;-86
2023/07/18 10:43:11;;;;;;;3.83;2.50;;;;;;;25.83;52.96;100693.03;10295468;28;97582;-89
2023/07/18 10:48:16;;;;;;;5.53;3.28;;;;;;;26.00;52.57;100686.03;10294667;28;96909;-85
2023/07/18 10:53:23;;;;;;;5.70;3.13;;;;;;;26.31;50.12;100692.84;10294216;28;96603;-90
2023/07/18 10:58:26;;;;;;;4.15;2.65;;;;;;;26.56;47.66;100686.75;10261395;28;97003;-88
2023/07/18 11:03:35;;;;;;;4.50;2.50;;;;;;;26.84;47.71;100672.19;10253705;28;96875;-90
2023/07/18 11:08:45;;;;;;;3.42;2.53;;;;;;;27.04;46.41;100666.66;10286246;28;96817;-88
2023/07/18 11:13:49;;;;;;;5.03;2.85;;;;;;;27.19;46.23;100667.78;10294488;28;96939;-88
2023/07/18 11:18:52;;;;;;;4.50;2.50;;;;;;;27.14;45.26;100657.47;10294874;28;96902;-89
2023/07/18 11:24:14;;;;;;;8.07;2.90;;;;;;;27.40;44.62;100650.22;10289300;28;97639;-87
2023/07/18 11:29:26;;;;;;;5.20;2.60;;;;;;;27.36;44.64;100646.13;10294256;28;97806;-91
2023/07/18 11:34:30;;;;;;;3.42;2.25;;;;;;;27.60;44.54;100642.72;10294549;28;96688;-87
2023/07/18 11:39:34;;;;;;;;;;;;;;;27.80;44.24;100639.69;10294486;28;97718;-88
2023/07/18 11:44:44;;;;;;;5.47;3.13;;;;;;;27.87;44.99;100646.16;10300885;28;97947;-90
2023/07/18 11:49:48;;;;;;;5.30;2.95;;;;;;;27.98;44.23;100642.28;10299739;28;96649;-89
2023/07/18 11:54:54;;;;;;;5.03;2.40;;;;;;;28.17;42.01;100635.81;10292933;28;97998;-89
2023/07/18 11:59:59;;;;;;;5.82;2.97;;;;;;;28.35;42.79;100640.13;10294583;28;97685;-89
2023/07/18 12:05:20;;;;;;;3.83;2.35;;;;;;;28.59;41.32;100642.03;10293622;28;96719;-91
2023/07/18 12:10:32;;;;;;;3.97;2.28;;;;;;;28.83;37.91;100631.22;10299861;28;96727;-89
2023/07/18 12:15:36;;;;;;;4.90;2.75;;;;;;;28.82;38.64;100633.09;10299248;28;96678;-86
2023/07/18 12:20:41;;;;;;;2.78;1.90;;;;;;;28.92;38.00;100624.84;10299590;28;97662;-89
2023/07/18 12:25:47;;;;;;;3.72;2.00;;;;;;;28.95;36.23;100621.78;10264446;28;96728;-86
2023/07/18 12:30:50;;;;;;;2.78;1.88;;;;;;;29.45;35.47;100616.97;10267615;28;96809;-89
2023/07/18 12:35:53;;;;;;;3.15;2.05;;;;;;;29.60;35.03;100609.03;10298437;28;98331;-85
2023/07/18 12:40:58;;;;;;;4.68;2.22;;;;;;;29.59;35.54;100612.78;10297190;28;96580;-86
2023/07/18 12:46:01;;;;;;;3.50;1.92;;;;;;;29.79;35.93;100605.91;10298515;28;97689;-88
2023/07/18 12:51:04;;;;;;;3.78;2.13;;;;;;;29.76;35.50;100595.41;10298148;28;96667;-86
2023/07/18 12:56:09;;;;;;;;;;;;;;;29.91;34.66;100599.09;10282389;28;98160;-88
2023/07/18 13:01:30;;;;;;;3.75;2.00;;;;;;;29.69;34.04;100594.44;10256159;28;97361;-87
2023/07/18 13:06:33;;;;;;;3.75;2.00;;;;;;;29.95;34.12;100590.41;10279903;28;97339;-86
2023/07/18 13:11:38;;;;;;;;;;;;;;;30.34;33.70;100584.97;10297558;28;96794;-90
2023/07/18 13:16:59;;;;;;;3.95;2.10;;;;;;;30.38;34.42;100578.16;10291681;28;97782;-87
2023/07/18 13:22:05;;;;;;;2.97;2.28;;;;;;;30.62;33.65;100583.44;10297633;28;96832;-87
2023/07/18 13:27:09;;;;;;;4.88;2.03;;;;;;;30.73;32.43;100579.47;10270148;28;97403;-85
2023/07/18 13:32:30;;;;;;;4.13;2.13;;;;;;;30.96;32.03;100570.25;10253139;28;96810;-86
2023/07/18 13:37:34;;;;;;;3.47;1.85;;;;;;;30.72;32.29;100562.31;10256208;28;96669;-88
2023/07/18 13:42:57;;;;;;;4.45;2.28;;;;;;;31.11;32.58;100568.41;10289750;28;96646;-87
2023/07/18 13:48:03;;;;;;;5.55;2.60;;;;;;;31.41;32.73;100571.22;10296308;28;97440;-84
2023/07/18 13:53:06;;;;;;;3.10;2.15;;;;;;;31.50;31.28;100559.19;10295024;28;96611;-84
2023/07/18 13:58:11;;;;;;;3.80;1.88;;;;;;;31.17;31.91;100556.81;10293093;28;96748;-84
2023/07/18 14:03:34;;;;;;;2.35;1.60;;;;;;;31.35;31.98;100548.34;10288828;28;96701;-90
2023/07/18 14:08:41;;;;;;;3.75;2.08;;;;;;;31.44;31.50;100555.38;10296544;28;96841;-89
2023/07/18 14:14:04;;;;;;;4.50;1.92;;;;;;;31.50;31.62;100542.88;10292935;28;96813;-88
2023/07/18 14:19:07;;;;;;;4.05;1.85;;;;;;;31.61;31.08;100537.81;10295415;28;97415;-87
2023/07/18 14:24:10;;;;;;;2.75;1.80;;;;;;;31.69;31.28;100525.97;10293873;28;96973;-87
2023/07/18 14:29:16;;;;;;;3.70;2.20;;;;;;;31.99;31.06;100525.78;10274474;28;97068;-89
2023/07/18 14:34:20;;;;;;;4.70;2.58;;;;;;;31.93;30.76;100522.97;10295117;28;97056;-90
2023/07/18 14:39:23;;;;;;;4.45;2.33;;;;;;;32.04;31.41;100519.75;10294655;28;97583;-89
2023/07/18 14:44:45;;;;;;;3.30;1.92;;;;;;;32.11;31.22;100509.78;10288491;28;96644;-89
2023/07/18 14:49:50;;;;;;;3.42;2.20;;;;;;;32.16;31.01;100504.59;10294596;28;96761;-87
2023/07/18 14:54:56;;;;;;;4.45;2.30;;;;;;;32.10;31.49;100502.66;10283880;22;98354;-87
2023/07/18 15:00:02;;;;;;;5.30;2.40;;;;;;;32.27;32.15;100502.19;10254725;28;97619;-85
2023/07/18 15:05:06;;;;;;;3.85;2.13;;;;;;;32.38;32.07;100509.03;10273556;28;96670;-85
2023/07/18 15:10:27;;;;;;;3.30;1.88;;;;;;;32.43;31.93;100498.41;10287712;28;96690;-88
2023/07/18 15:15:50;;;;;;;4.13;2.13;;;;;;;32.48;32.41;100493.22;10289773;28;97837;-86
2023/07/18 15:20:53;;;;;;;4.60;2.40;;;;;;;32.59;32.77;100484.50;10301276;28;96793;-87
2023/07/18 15:25:57;;;;;;;4.65;2.45;;;;;;;32.59;32.81;100481.78;10300720;28;96721;-89
2023/07/18 15:31:01;;;;;;;4.75;2.47;;;;;;;32.48;34.42;100485.06;10260885;28;96786;-88
2023/07/18 15:36:05;;;;;;;5.38;2.63;;;;;;;32.33;34.62;100484.22;10260301;28;96682;-88
2023/07/18 15:41:08;;;;;;;4.57;2.50;;;;;;;32.40;35.36;100482.44;10296206;28;97580;-89
2023/07/18 15:46:13;;;;;;;4.25;2.53;;;;;;;32.05;36.27;100481.44;10300215;28;96671;-86
2023/07/18 15:51:34;;;;;;;5.90;2.60;;;;;;;32.23;35.84;100470.09;10301244;28;97889;-88
2023/07/18 15:56:39;;;;;;;5.90;2.88;;;;;;;32.04;36.25;100473.47;10279597;28;97089;-87
2023/07/18 16:01:44;;;;;;;5.78;3.22;;;;;;;31.73;36.96;100475.59;10259211;28;96980;-90
2023/07/18 16:06:47;;;;;;;6.47;3.10;;;;;;;31.68;37.96;100467.16;10258258;28;96926;-85
2023/07/18 16:11:51;;;;;;;4.78;3.40;;;;;;;31.29;38.80;100470.19;10269131;28;96621;-90
2023/07/18 16:16:57;;;;;;;5.05;2.85;;;;;;;31.27;39.10;100470.38;10299239;28;97146;-88
2023/07/18 16:22:02;;;;;;;5.05;2.95;;;;;;;31.09;39.90;100472.63;10299715;28;96556;-88
2023/07/18 16:27:25;;;;;;;5.47;3.28;;;;;;;30.90;40.05;100467.72;10287142;28;96780;-87
2023/07/18 16:32:30;;;;;;;5.30;2.88;;;;;;;30.66;41.02;100472.50;10297736;28;96707;-88
2023/07/18 16:37:36;;;;;;;6.72;3.55;;;;;;;30.44;41.84;100468.78;10298651;28;96681;-86
2023/07/18 16:42:40;;;;;;;5.72;3.40;;;;;;;30.59;42.48;100466.97;10299133;28;96633;-87
2023/07/18 16:47:45;;;;;;;5.10;3.60;;;;;;;30.48;42.25;100470.13;10297455;28;96737;-87
2023/07/18 16:52:48;;;;;;;4.65;3.10;;;;;;;30.35;43.15;100463.63;10297842;28;97515;-87
2023/07/18 16:57:51;;;;;;;;;;;;;;;30.22;43.45;100469.66;10264601;28;96611;-84
2023/07/18 17:03:14;;;;;;;6.75;3.38;;;;;;;30.06;43.60;100462.44;10268902;28;97026;-88
2023/07/18 17:08:17;;;;;;;6.45;3.90;;;;;;;30.02;43.67;100465.69;10297741;28;96896;-85
2023/07/18 17:13:21;;;;;;;4.47;3.28;;;;;;;30.00;43.55;100465.03;10297914;28;96732;-88
2023/07/18 17:18:26;;;;;;;5.47;3.67;;;;;;;29.97;43.73;100476.25;10298208;28;96971;-87
2023/07/18 17:23:29;;;;;;;7.32;3.70;;;;;;;29.97;43.97;100476.25;10296860;28;97829;-85
2023/07/18 17:28:32;;;;;;;;;;;;;;;29.91;44.00;100479.66;10277957;28;96646;-87
2023/07/18 17:33:37;;;;;;;6.20;3.60;;;;;;;29.81;44.03;100474.47;10257634;28;97994;-89
2023/07/18 17:38:40;;;;;;;5.75;3.70;;;;;;;29.80;44.10;100472.78;10280034;28;96618;-88
2023/07/18 17:43:44;;;;;;;6.75;3.42;;;;;;;29.73;44.28;100481.78;10296613;28;96610;-87
2023/07/18 17:48:49;;;;;;;5.32;2.92;;;;;;;29.60;44.10;100485.09;10295301;28;96788;-87
2023/07/18 17:53:52;;;;;;;5.50;3.85;;;;;;;29.54;43.95;100495.78;10295275;28;97038;-86
2023/07/18 17:58:58;;;;;;;5.93;3.25;;;;;;;29.41;44.27;100496.34;10257513;28;96792;-88
2023/07/18 18:04:06;;;;;;;5.80;3.42;;;;;;;29.23;44.68;100498.41;10255606;28;96626;-87
2023/07/18 18:09:09;;;;;;;4.45;3.22;;;;;;;28.99;45.02;100502.03;10255800;28;96795;-88
2023/07/18 18:14:12;;;;;;;;;;;;;;;28.79;45.64;100508.78;10292706;28;96701;-89
2023/07/18 18:19:35;;;;;;;6.22;3.08;;;;;;;28.67;46.05;100514.75;10296092;28;96862;-87
2023/07/18 18:24:38;;;;;;;5.28;3.55;;;;;;;28.57;46.05;100520.31;10295946;28;96822;-89
2023/07/18 18:29:42;;;;;;;4.97;3.33;;;;;;;28.33;46.47;100528.44;10290679;28;96956;-88
2023/07/18 18:35:08;;;;;;;7.22;3.60;;;;;;;28.17;47.15;100530.25;10288955;28;96607;-86
2023/07/18 18:40:12;;;;;;;6.07;3.45;;;;;;;27.82;47.33;100531.34;10294366;28;96774;-86
2023/07/18 18:45:17;;;;;;;6.00;3.20;;;;;;;27.63;47.56;100539.69;10295228;28;97560;-86
2023/07/18 18:50:22;;;;;;;6.20;3.60;;;;;;;27.62;47.44;100546.09;10297734;28;97052;-83
2023/07/18 18:55:25;;;;;;;7.20;3.28;;;;;;;27.30;48.31;100554.03;10293190;28;97627;-84
2023/07/18 19:00:32;;;;;;;6.82;3.58;;;;;;;27.41;47.82;100567.25;10261214;28;96672;-86
2023/07/18 19:05:37;;;;;;;4.90;3.25;;;;;;;27.32;48.26;100560.13;10301737;28;97858;-87
2023/07/18 19:10:40;;;;;;;6.95;3.45;;;;;;;27.14;48.18;100565.59;10302092;28;96718;-90
2023/07/18 19:16:03;;;;;;;6.22;3.97;;;;;;;27.13;48.03;100574.69;10301859;28;96544;-88
2023/07/18 19:21:08;;;;;;;6.78;4.00;;;;;;;27.00;48.50;100574.22;10301726;28;96743;-90
2023/07/18 19:26:11;;;;;;;5.43;3.55;;;;;;;26.97;48.54;100580.78;10299636;28;96909;-89
2023/07/18 19:31:14;;;;;;;5.88;3.95;;;;;;;26.87;49.23;100590.84;10259414;28;97327;-90
2023/07/18 19:36:20;;;;;;;8.48;4.00;;;;;;;26.76;49.63;100595.66;10273002;28;96827;-89
2023/07/18 19:41:41;;;;;;;7.45;4.05;;;;;;;26.75;49.67;100602.88;10294383;28;96636;-90
2023/07/18 19:46:44;;;;;;;5.73;3.93;;;;;;;26.56;50.17;100599.50;10299909;28;97094;-90
2023/07/18 19:51:50;;;;;;;5.80;4.20;;;;;;;26.24;50.40;100618.88;10299821;28;97141;-90
2023/07/18 19:56:54;;;;;;;6.97;3.53;;;;;;;26.28;50.45;100612.16;10291545;28;97449;-89
2023/07/18 20:01:57;;;;;;;5.95;3.92;;;;;;;26.28;50.31;100631.03;10258053;28;96759;-88
2023/07/18 20:07:19;;;;;;;7.40;4.05;;;;;;;26.12;50.22;100630.03;10253405;28;96708;-89
2023/07/18 20:12:23;;;;;;;6.20;3.67;;;;;;;26.09;50.37;100643.81;10288546;28;96623;-90
2023/07/18 20:17:26;;;;;;;9.07;4.47;;;;;;;26.00;50.23;100644.72;10299168;28;96756;-89
2023/07/18 20:22:48;;;;;;;6.13;4.00;;;;;;;25.93;50.19;100657.94;10291801;28;97234;-88
2023/07/18 20:27:52;;;;;;;7.75;3.53;;;;;;;25.83;50.22;100662.53;10284243;28;96631;-90
2023/07/18 20:32:58;;;;;;;10.87;4.00;;;;;;;25.80;50.43;100673.59;10257872;28;96610;-90
2023/07/18 20:38:03;;;;;;;5.78;3.50;;;;;;;25.69;50.67;100668.41;10258259;28;96662;-89
2023/07/18 20:43:06;;;;;;;7.72;3.90;;;;;;;25.55;51.03;100668.84;10261547;28;96707;-88
2023/07/18 20:48:09;;;;;;;6.83;4.20;;;;;;;25.41;51.23;100671.97;10297719;28;96948;-89
2023/07/18 20:53:14;;;;;;;6.68;3.97;;;;;;;25.34;51.62;100684.31;10297152;28;97232;-88
2023/07/18 20:58:35;;;;;;;7.40;4.00;;;;;;;25.13;52.34;100692.56;10257167;28;97476;-89
2023/07/18 21:03:56;;;;;;;8.60;4.22;;;;;;;25.07;52.34;100692.31;10285667;28;96816;-89
2023/07/18 21:09:18;;;;;;;6.95;3.92;;;;;;;24.94;52.75;100708.69;10296715;28;97080;-90
2023/07/18 21:14:22;;;;;;;7.70;4.53;;;;;;;24.90;52.90;100709.09;10295914;28;96669;-90
2023/07/18 21:19:26;;;;;;;7.35;3.83;;;;;;;24.83;53.36;100708.00;10298969;28;97213;-89
2023/07/18 21:24:48;;;;;;;6.32;4.03;;;;;;;24.62;53.90;100708.94;10294402;28;96764;-90
2023/07/18 21:29:54;;;;;;;6.60;4.32;;;;;;;24.59;53.94;100714.59;10266655;28;96720;-90
2023/07/18 21:34:57;;;;;;;6.05;4.22;;;;;;;24.47;54.20;100713.03;10268032;28;97718;-89
2023/07/18 21:40:02;;;;;;;8.10;4.33;;;;;;;24.26;54.60;100719.41;10298677;28;97061;-89
2023/07/18 21:45:06;;;;;;;8.80;4.35;;;;;;;24.20;54.79;100719.97;10297764;28;97752;-90
2023/07/18 21:50:09;;;;;;;;;;;;;;;23.97;56.26;100723.81;10298966;28;97552;-89
2023/07/18 21:55:15;;;;;;;7.75;3.95;;;;;;;24.07;55.04;100724.72;10285443;28;96964;-89
2023/07/18 22:00:21;;;;;;;8.07;4.35;;;;;;;23.92;55.22;100721.56;10255863;28;96855;-89
2023/07/18 22:05:25;;;;;;;5.80;3.45;;;;;;;23.64;56.16;100719.56;10254724;28;96989;-89
2023/07/18 22:10:33;;;;;;;6.95;4.10;;;;;;;23.64;55.93;100714.19;10278870;28;97393;-89
2023/07/18 22:15:37;;;;;;;9.23;4.53;;;;;;;23.36;56.59;100717.47;10296939;28;97461;-90
2023/07/18 22:20:42;;;;;;;8.80;4.35;;;;;;;23.31;57.08;100725.09;10296700;28;96941;-89
2023/07/18 22:26:06;;;;;;;6.45;3.83;;;;;;;23.24;57.06;100724.75;10293332;28;96852;-89
2023/07/18 22:31:17;;;;;;;7.67;4.27;;;;;;;23.07;57.23;100727.16;10215159;28;96826;-89
2023/07/18 22:36:22;;;;;;;8.68;4.30;;;;;;;22.86;58.16;100729.78;10215198;28;97157;-90
2023/07/18 22:41:29;;;;;;;7.05;3.97;;;;;;;22.72;58.20;100715.75;10215878;28;97007;-89
2023/07/18 22:46:50;;;;;;;6.60;4.20;;;;;;;22.75;58.23;100720.91;10214683;28;96793;-89
2023/07/18 22:51:54;;;;;;;8.75;3.97;;;;;;;22.96;57.24;100721.81;10213852;28;96638;-90
2023/07/18 22:57:00;;;;;;;8.13;3.80;;;;;;;22.61;57.73;100714.81;10225295;28;96768;-89
2023/07/18 23:02:22;;;;;;;7.28;3.70;;;;;;;22.54;57.92;100718.97;10279908;28;96648;-90
2023/07/18 23:07:27;;;;;;;5.70;3.50;;;;;;;22.57;57.92;100716.03;10295193;28;97478;-89
2023/07/18 23:12:33;;;;;;;5.70;3.38;;;;;;;22.42;58.13;100717.28;10295720;28;97742;-89
2023/07/18 23:17:38;;;;;;;6.53;3.50;;;;;;;21.94;59.48;100723.88;10295488;28;97410;-89
2023/07/18 23:22:43;;;;;;;6.55;3.58;;;;;;;22.02;58.73;100726.81;10296525;28;96845;-89
2023/07/18 23:27:50;;;;;;;6.20;3.50;;;;;;;22.10;58.14;100729.75;10280661;28;97510;-89
2023/07/18 23:32:54;;;;;;;7.28;3.53;;;;;;;21.89;58.47;100731.44;10256209;28;96929;-89
2023/07/18 23:37:58;;;;;;;;;;;;;;;21.59;59.23;100717.72;10300193;28;96769;-89